createdAt,value
2017-10-11T00:00:37.629Z,13.22
2017-10-11T00:01:43.601Z,13.33
2017-10-11T00:02:49.755Z,13.28
2017-10-11T00:03:57.227Z,13.25
2017-10-11T00:05:03.677Z,13.29
2017-10-11T00:06:09.920Z,13.25
2017-10-11T00:07:16.044Z,13.22
2017-10-11T00:08:23.509Z,13.28
2017-10-11T00:09:29.709Z,13.29
2017-10-11T00:10:35.849Z,13.35
2017-10-11T00:11:42.040Z,13.30
2017-10-11T00:12:48.228Z,13.20
2017-10-11T00:13:56.935Z,13.13
2017-10-11T00:15:03.067Z,13.10
2017-10-11T00:16:09.254Z,13.08
2017-10-11T00:17:15.493Z,13.06
2017-10-11T00:18:22.495Z,13.06
2017-10-11T00:19:30.421Z,13.11
2017-10-11T00:20:39.270Z,13.11
2017-10-11T00:21:45.493Z,13.17
2017-10-11T00:22:51.679Z,13.06
2017-10-11T00:23:57.814Z,13.09
2017-10-11T00:25:05.868Z,13.13
2017-10-11T00:26:12.025Z,13.10
2017-10-11T00:27:18.192Z,13.15
2017-10-11T00:28:24.417Z,13.14
2017-10-11T00:29:30.548Z,13.12
2017-10-11T00:30:36.658Z,13.17
2017-10-11T00:31:42.798Z,13.27
2017-10-11T00:32:48.951Z,13.21
2017-10-11T00:33:55.062Z,13.09
2017-10-11T00:35:01.248Z,13.09
2017-10-11T00:36:07.223Z,13.04
2017-10-11T00:37:13.024Z,13.01
2017-10-11T00:38:19.191Z,13.04
2017-10-11T00:39:25.374Z,13.06
2017-10-11T00:40:30.866Z,13.04
2017-10-11T00:41:37.053Z,12.96
2017-10-11T00:42:42.786Z,13.01
2017-10-11T00:43:48.554Z,13.08
2017-10-11T00:44:54.733Z,13.14
2017-10-11T00:46:04.726Z,13.15
2017-10-11T00:47:10.554Z,13.11
2017-10-11T00:48:16.741Z,13.10
2017-10-11T00:49:22.284Z,13.16
2017-10-11T00:50:28.485Z,13.23
2017-10-11T00:51:34.623Z,13.21
2017-10-11T00:52:40.726Z,13.25
2017-10-11T00:53:46.478Z,13.26
2017-10-11T00:54:52.284Z,13.26
2017-10-11T00:55:57.748Z,13.34
2017-10-11T00:57:03.259Z,13.31
2017-10-11T00:58:08.424Z,13.34
2017-10-11T00:59:14.032Z,13.34
2017-10-11T01:00:19.305Z,13.40
2017-10-11T01:01:23.859Z,13.42
2017-10-11T01:02:29.817Z,13.46
2017-10-11T01:03:35.990Z,13.44
2017-10-11T01:04:42.134Z,13.41
2017-10-11T01:05:47.733Z,13.40
2017-10-11T01:06:53.994Z,13.40
2017-10-11T01:08:00.267Z,13.40
2017-10-11T01:09:06.081Z,13.49
2017-10-11T01:10:12.448Z,13.47
2017-10-11T01:11:18.639Z,13.54
2017-10-11T01:12:27.875Z,13.58
2017-10-11T01:13:34.044Z,13.55
2017-10-11T01:14:40.219Z,13.51
2017-10-11T01:15:45.655Z,13.45
2017-10-11T01:16:50.887Z,13.45
2017-10-11T01:17:56.831Z,13.46
2017-10-11T01:19:03.041Z,13.55
2017-10-11T01:20:08.649Z,13.58
2017-10-11T01:21:14.185Z,13.51
2017-10-11T01:22:19.620Z,13.49
2017-10-11T01:23:25.444Z,13.51
2017-10-11T01:24:30.975Z,13.50
2017-10-11T01:25:36.206Z,13.48
2017-10-11T01:26:41.605Z,13.55
2017-10-11T01:27:47.815Z,13.64
2017-10-11T01:28:54.217Z,13.73
2017-10-11T01:30:00.976Z,13.69
2017-10-11T01:31:06.307Z,13.74
2017-10-11T01:32:11.897Z,13.71
2017-10-11T01:33:17.432Z,13.73
2017-10-11T01:34:23.355Z,13.72
2017-10-11T01:35:29.692Z,13.76
2017-10-11T01:36:36.122Z,13.73
2017-10-11T01:37:41.797Z,13.69
2017-10-11T01:38:47.239Z,13.71
2017-10-11T01:39:52.789Z,13.75
2017-10-11T01:40:58.192Z,13.79
2017-10-11T01:42:03.618Z,13.77
2017-10-11T01:43:10.300Z,13.78
2017-10-11T01:44:16.048Z,13.74
2017-10-11T01:45:21.982Z,13.73
2017-10-11T01:46:27.523Z,13.69
2017-10-11T01:47:32.914Z,13.72
2017-10-11T01:48:38.317Z,13.73
2017-10-11T01:49:43.692Z,13.74
2017-10-11T01:50:49.389Z,13.74
2017-10-11T01:51:55.446Z,13.76
2017-10-11T01:53:01.546Z,13.78
2017-10-11T01:54:07.264Z,13.75
2017-10-11T01:55:18.983Z,13.72
2017-10-11T01:56:24.828Z,13.72
2017-10-11T01:57:31.029Z,13.75
2017-10-11T01:58:37.332Z,13.76
2017-10-11T01:59:46.146Z,13.77
2017-10-11T02:00:51.967Z,13.75
2017-10-11T02:01:58.369Z,13.76
2017-10-11T02:03:05.651Z,13.74
2017-10-11T02:04:10.922Z,13.71
2017-10-11T02:05:16.664Z,13.73
2017-10-11T02:06:22.573Z,13.73
2017-10-11T02:07:28.676Z,13.75
2017-10-11T02:08:35.143Z,13.77
2017-10-11T02:09:41.076Z,13.78
2017-10-11T02:10:47.186Z,13.82
2017-10-11T02:11:52.795Z,13.78
2017-10-11T02:12:58.858Z,13.74
2017-10-11T02:14:07.651Z,13.79
2017-10-11T02:15:13.767Z,13.78
2017-10-11T02:16:22.651Z,13.83
2017-10-11T02:17:28.571Z,13.85
2017-10-11T02:18:35.546Z,13.88
2017-10-11T02:19:41.733Z,13.85
2017-10-11T02:20:47.973Z,13.83
2017-10-11T02:21:54.128Z,13.82
2017-10-11T02:23:00.328Z,13.88
2017-10-11T02:24:06.495Z,13.88
2017-10-11T02:25:12.351Z,13.93
2017-10-11T02:26:18.478Z,13.87
2017-10-11T02:27:24.644Z,13.91
2017-10-11T02:28:30.354Z,13.89
2017-10-11T02:29:38.426Z,13.91
2017-10-11T02:30:44.562Z,13.91
2017-10-11T02:31:50.823Z,13.95
2017-10-11T02:32:56.885Z,13.94
2017-10-11T02:34:03.244Z,13.92
2017-10-11T02:35:09.410Z,13.90
2017-10-11T02:36:16.293Z,13.88
2017-10-11T02:37:22.405Z,13.89
2017-10-11T02:38:28.591Z,13.86
2017-10-11T02:39:34.785Z,13.85
2017-10-11T02:40:40.449Z,13.83
2017-10-11T02:41:46.562Z,13.82
2017-10-11T02:42:52.648Z,13.82
2017-10-11T02:43:58.809Z,13.80
2017-10-11T02:45:05.150Z,13.78
2017-10-11T02:46:12.055Z,13.75
2017-10-11T02:47:19.178Z,13.73
2017-10-11T02:48:25.324Z,13.72
2017-10-11T02:49:32.041Z,13.66
2017-10-11T02:50:38.204Z,13.63
2017-10-11T02:51:44.716Z,13.61
2017-10-11T02:52:50.935Z,13.59
2017-10-11T02:53:56.969Z,13.55
2017-10-11T02:55:03.090Z,13.55
2017-10-11T02:56:09.203Z,13.60
2017-10-11T02:57:15.399Z,13.58
2017-10-11T02:58:21.525Z,13.53
2017-10-11T02:59:27.609Z,13.55
2017-10-11T03:00:33.792Z,13.55
2017-10-11T03:01:40.057Z,13.55
2017-10-11T03:02:46.769Z,13.52
2017-10-11T03:03:53.784Z,13.52
2017-10-11T03:04:59.874Z,13.58
2017-10-11T03:06:05.940Z,13.61
2017-10-11T03:07:12.045Z,13.55
2017-10-11T03:08:18.192Z,13.59
2017-10-11T03:09:24.266Z,13.57
2017-10-11T03:10:30.446Z,13.55
2017-10-11T03:11:36.642Z,13.56
2017-10-11T03:12:42.769Z,13.55
2017-10-11T03:13:49.579Z,13.59
2017-10-11T03:14:55.759Z,13.61
2017-10-11T03:16:02.395Z,13.59
2017-10-11T03:17:08.470Z,13.56
2017-10-11T03:18:15.362Z,13.58
2017-10-11T03:19:22.338Z,13.59
2017-10-11T03:20:28.447Z,13.60
2017-10-11T03:21:34.650Z,13.60
2017-10-11T03:22:41.286Z,13.61
2017-10-11T03:23:47.632Z,13.66
2017-10-11T03:24:53.763Z,13.65
2017-10-11T03:26:00.614Z,13.69
2017-10-11T03:27:07.597Z,13.66
2017-10-11T03:28:14.314Z,13.66
2017-10-11T03:29:20.444Z,13.67
2017-10-11T03:30:27.453Z,13.70
2017-10-11T03:31:34.346Z,13.68
2017-10-11T03:32:40.456Z,13.72
2017-10-11T03:33:46.740Z,13.74
2017-10-11T03:34:52.851Z,13.78
2017-10-11T03:35:58.764Z,13.74
2017-10-11T03:37:04.882Z,13.73
2017-10-11T03:38:11.067Z,13.74
2017-10-11T03:39:17.243Z,13.66
2017-10-11T03:40:23.103Z,13.66
2017-10-11T03:41:29.084Z,13.67
2017-10-11T03:42:34.988Z,13.68
2017-10-11T03:43:41.237Z,13.69
2017-10-11T03:44:47.399Z,13.71
2017-10-11T03:45:53.541Z,13.68
2017-10-11T03:47:00.548Z,13.70
2017-10-11T03:48:06.704Z,13.72
2017-10-11T03:49:12.964Z,13.71
2017-10-11T03:50:19.142Z,13.69
2017-10-11T03:51:25.363Z,13.69
2017-10-11T03:52:32.432Z,13.67
2017-10-11T03:53:39.533Z,13.65
2017-10-11T03:54:45.538Z,13.59
2017-10-11T03:55:51.646Z,13.58
2017-10-11T03:56:57.817Z,13.61
2017-10-11T03:58:03.913Z,13.59
2017-10-11T03:59:10.193Z,13.61
2017-10-11T04:00:16.597Z,13.62
2017-10-11T04:01:22.679Z,13.58
2017-10-11T04:02:28.808Z,13.58
2017-10-11T04:03:35.061Z,13.61
2017-10-11T04:04:41.645Z,13.58
2017-10-11T04:05:47.841Z,13.55
2017-10-11T04:06:53.989Z,13.54
2017-10-11T04:08:00.212Z,13.57
2017-10-11T04:09:06.299Z,13.53
2017-10-11T04:10:12.825Z,13.49
2017-10-11T04:11:18.927Z,13.58
2017-10-11T04:12:24.270Z,13.59
2017-10-11T04:13:30.192Z,13.58
2017-10-11T04:14:37.273Z,13.59
2017-10-11T04:15:43.390Z,13.56
2017-10-11T04:16:51.544Z,13.51
2017-10-11T04:17:57.539Z,13.48
2017-10-11T04:19:04.783Z,13.44
2017-10-11T04:20:10.954Z,13.37
2017-10-11T04:21:17.419Z,13.36
2017-10-11T04:22:23.837Z,13.36
2017-10-11T04:23:29.926Z,13.33
2017-10-11T04:24:36.801Z,13.34
2017-10-11T04:25:43.710Z,13.38
2017-10-11T04:26:51.334Z,13.39
2017-10-11T04:27:58.185Z,13.37
2017-10-11T04:29:05.038Z,13.32
2017-10-11T04:30:11.071Z,13.32
2017-10-11T04:31:17.119Z,13.44
2017-10-11T04:32:23.028Z,13.41
2017-10-11T04:33:28.979Z,13.41
2017-10-11T04:34:35.178Z,13.37
2017-10-11T04:35:41.112Z,13.34
2017-10-11T04:36:47.103Z,13.37
2017-10-11T04:37:53.119Z,13.37
2017-10-11T04:38:59.468Z,13.35
2017-10-11T04:40:05.584Z,13.35
2017-10-11T04:41:11.522Z,13.30
2017-10-11T04:42:17.469Z,13.30
2017-10-11T04:43:23.774Z,13.28
2017-10-11T04:44:30.357Z,13.25
2017-10-11T04:45:36.362Z,13.25
2017-10-11T04:46:42.373Z,13.22
2017-10-11T04:47:48.388Z,13.24
2017-10-11T04:48:54.413Z,13.24
2017-10-11T04:50:00.807Z,13.29
2017-10-11T04:51:07.625Z,13.32
2017-10-11T04:52:13.700Z,13.38
2017-10-11T04:53:19.845Z,13.38
2017-10-11T04:54:25.998Z,13.41
2017-10-11T04:55:32.143Z,13.45
2017-10-11T04:56:38.596Z,13.47
2017-10-11T04:57:45.154Z,13.50
2017-10-11T04:58:51.328Z,13.53
2017-10-11T04:59:58.123Z,13.52
2017-10-11T05:01:04.812Z,13.56
2017-10-11T05:02:11.063Z,13.60
2017-10-11T05:03:21.688Z,13.60
2017-10-11T05:04:28.340Z,13.61
2017-10-11T05:05:34.686Z,13.61
2017-10-11T05:06:40.898Z,13.66
2017-10-11T05:07:47.100Z,13.69
2017-10-11T05:08:53.259Z,13.66
2017-10-11T05:10:00.127Z,13.64
2017-10-11T05:11:06.297Z,13.65
2017-10-11T05:12:12.558Z,13.65
2017-10-11T05:13:18.749Z,13.67
2017-10-11T05:14:25.450Z,13.64
2017-10-11T05:15:31.651Z,13.67
2017-10-11T05:16:37.806Z,13.66
2017-10-11T05:17:44.091Z,13.67
2017-10-11T05:18:50.283Z,13.73
2017-10-11T05:19:56.431Z,13.72
2017-10-11T05:21:02.738Z,13.74
2017-10-11T05:22:08.900Z,13.74
2017-10-11T05:23:14.777Z,13.77
2017-10-11T05:24:20.940Z,13.77
2017-10-11T05:25:27.273Z,13.78
2017-10-11T05:26:33.420Z,13.81
2017-10-11T05:27:40.792Z,13.83
2017-10-11T05:28:46.967Z,13.83
2017-10-11T05:29:53.220Z,13.86
2017-10-11T05:31:00.717Z,13.83
2017-10-11T05:32:06.669Z,13.83
2017-10-11T05:33:13.525Z,13.88
2017-10-11T05:34:22.358Z,13.85
2017-10-11T05:35:28.575Z,13.87
2017-10-11T05:36:34.780Z,13.87
2017-10-11T05:37:42.094Z,13.88
2017-10-11T05:38:49.210Z,13.86
2017-10-11T05:39:55.605Z,13.86
2017-10-11T05:41:01.968Z,13.87
2017-10-11T05:42:08.050Z,13.88
2017-10-11T05:43:14.251Z,13.85
2017-10-11T05:44:20.258Z,13.86
2017-10-11T05:45:26.423Z,13.87
2017-10-11T05:46:33.221Z,13.89
2017-10-11T05:47:40.224Z,13.87
2017-10-11T05:48:46.363Z,13.84
2017-10-11T05:49:53.049Z,13.89
2017-10-11T05:51:00.011Z,13.87
2017-10-11T05:52:06.266Z,13.84
2017-10-11T05:53:13.114Z,13.87
2017-10-11T05:54:19.241Z,13.89
2017-10-11T05:55:25.161Z,13.88
2017-10-11T05:56:31.288Z,13.94
2017-10-11T05:57:37.353Z,13.91
2017-10-11T05:58:44.367Z,13.91
2017-10-11T05:59:50.544Z,13.91
2017-10-11T06:00:56.664Z,13.93
2017-10-11T06:02:02.814Z,13.96
2017-10-11T06:03:09.039Z,13.92
2017-10-11T06:04:16.310Z,13.93
2017-10-11T06:05:23.364Z,13.94
2017-10-11T06:06:30.790Z,13.98
2017-10-11T06:07:36.796Z,13.99
2017-10-11T06:08:42.943Z,13.98
2017-10-11T06:09:49.051Z,13.99
2017-10-11T06:10:55.188Z,13.98
2017-10-11T06:12:01.362Z,13.98
2017-10-11T06:13:11.333Z,13.97
2017-10-11T06:14:17.763Z,13.99
2017-10-11T06:15:23.862Z,13.97
2017-10-11T06:16:30.794Z,14.00
2017-10-11T06:17:37.122Z,14.01
2017-10-11T06:18:43.070Z,13.98
2017-10-11T06:19:49.187Z,14.02
2017-10-11T06:20:55.340Z,14.02
2017-10-11T06:22:02.226Z,14.02
2017-10-11T06:23:08.995Z,14.01
2017-10-11T06:24:15.403Z,14.01
2017-10-11T06:25:21.503Z,14.03
2017-10-11T06:26:27.883Z,14.01
2017-10-11T06:27:34.080Z,14.00
2017-10-11T06:28:40.170Z,14.02
2017-10-11T06:29:45.953Z,14.00
2017-10-11T06:30:52.240Z,14.01
2017-10-11T06:31:58.977Z,14.00
2017-10-11T06:33:05.132Z,14.02
2017-10-11T06:34:11.363Z,14.03
2017-10-11T06:35:17.652Z,14.09
2017-10-11T06:36:24.076Z,14.07
2017-10-11T06:37:30.342Z,14.11
2017-10-11T06:38:36.740Z,14.11
2017-10-11T06:39:42.799Z,14.12
2017-10-11T06:40:49.687Z,14.13
2017-10-11T06:41:55.537Z,14.18
2017-10-11T06:43:01.849Z,14.18
2017-10-11T06:44:08.067Z,14.18
2017-10-11T06:45:14.859Z,14.21
2017-10-11T06:46:21.342Z,14.23
2017-10-11T06:47:27.487Z,14.20
2017-10-11T06:48:33.253Z,14.25
2017-10-11T06:49:39.526Z,14.32
2017-10-11T06:50:45.707Z,14.23
2017-10-11T06:51:52.251Z,14.20
2017-10-11T06:52:58.370Z,14.19
2017-10-11T06:54:04.582Z,14.21
2017-10-11T06:55:10.767Z,14.22
2017-10-11T06:56:16.963Z,14.25
2017-10-11T06:57:24.329Z,14.23
2017-10-11T06:58:30.265Z,14.26
2017-10-11T06:59:36.347Z,14.26
2017-10-11T07:00:42.228Z,14.29
2017-10-11T07:01:47.806Z,14.25
2017-10-11T07:02:53.982Z,14.28
2017-10-11T07:04:00.060Z,14.24
2017-10-11T07:05:06.224Z,14.23
2017-10-11T07:06:12.875Z,14.25
2017-10-11T07:07:19.259Z,14.23
2017-10-11T07:08:25.721Z,14.28
2017-10-11T07:09:32.139Z,14.28
2017-10-11T07:10:38.320Z,14.28
2017-10-11T07:11:45.891Z,14.24
2017-10-11T07:12:52.138Z,14.30
2017-10-11T07:13:58.115Z,14.29
2017-10-11T07:15:04.342Z,14.32
2017-10-11T07:16:10.626Z,14.39
2017-10-11T07:17:19.939Z,14.34
2017-10-11T07:18:27.212Z,14.28
2017-10-11T07:19:34.344Z,14.20
2017-10-11T07:20:44.828Z,14.19
2017-10-11T07:21:50.816Z,14.19
2017-10-11T07:22:57.846Z,14.19
2017-10-11T07:24:04.599Z,14.18
2017-10-11T07:25:10.945Z,14.22
2017-10-11T07:26:17.088Z,14.37
2017-10-11T07:27:23.157Z,14.31
2017-10-11T07:28:29.446Z,14.43
2017-10-11T07:29:36.117Z,14.47
2017-10-11T07:30:42.324Z,14.45
2017-10-11T07:31:48.133Z,14.51
2017-10-11T07:32:54.874Z,14.57
2017-10-11T07:34:01.401Z,14.64
2017-10-11T07:35:07.526Z,14.70
2017-10-11T07:36:13.708Z,14.77
2017-10-11T07:37:20.360Z,14.80
2017-10-11T07:38:26.600Z,14.87
2017-10-11T07:39:33.564Z,14.93
2017-10-11T07:40:39.583Z,15.02
2017-10-11T07:41:45.781Z,15.07
2017-10-11T07:42:54.598Z,15.07
2017-10-11T07:44:00.733Z,15.09
2017-10-11T07:45:06.681Z,15.23
2017-10-11T07:46:12.807Z,15.35
2017-10-11T07:47:19.757Z,15.37
2017-10-11T07:48:25.470Z,15.38
2017-10-11T07:49:31.430Z,15.41
2017-10-11T07:50:37.643Z,15.40
2017-10-11T07:51:43.499Z,15.46
2017-10-11T07:52:49.312Z,15.47
2017-10-11T07:53:55.478Z,15.61
2017-10-11T07:55:01.298Z,15.60
2017-10-11T07:56:07.219Z,15.55
2017-10-11T07:57:13.566Z,15.56
2017-10-11T07:58:19.617Z,15.69
2017-10-11T07:59:25.632Z,15.60
2017-10-11T08:00:31.091Z,15.58
2017-10-11T08:01:37.034Z,15.69
2017-10-11T08:02:44.566Z,15.62
2017-10-11T08:03:52.356Z,15.56
2017-10-11T08:04:58.527Z,15.52
2017-10-11T08:06:04.108Z,15.53
2017-10-11T08:07:10.200Z,15.53
2017-10-11T08:08:16.430Z,15.58
2017-10-11T08:09:23.435Z,15.61
2017-10-11T08:10:29.917Z,15.58
2017-10-11T08:11:35.856Z,15.58
2017-10-11T08:12:42.154Z,15.61
2017-10-11T08:13:48.452Z,15.65
2017-10-11T08:14:54.756Z,15.78
2017-10-11T08:16:00.936Z,15.81
2017-10-11T08:17:07.320Z,15.94
2017-10-11T08:18:13.143Z,16.10
2017-10-11T08:19:19.479Z,16.31
2017-10-11T08:20:25.634Z,16.40
2017-10-11T08:21:31.743Z,16.44
2017-10-11T08:22:38.488Z,16.40
2017-10-11T08:23:44.718Z,16.14
2017-10-11T08:24:50.882Z,16.02
2017-10-11T08:25:57.906Z,15.96
2017-10-11T08:27:04.027Z,15.84
2017-10-11T08:28:10.411Z,15.87
2017-10-11T08:29:16.298Z,15.83
2017-10-11T08:30:22.676Z,15.76
2017-10-11T08:31:29.500Z,15.80
2017-10-11T08:32:36.592Z,15.71
2017-10-11T08:33:42.795Z,15.73
2017-10-11T08:34:50.283Z,15.76
2017-10-11T08:35:58.080Z,15.74
2017-10-11T08:37:04.833Z,15.81
2017-10-11T08:38:13.729Z,15.88
2017-10-11T08:39:21.363Z,15.83
2017-10-11T08:40:27.588Z,15.96
2017-10-11T08:41:34.296Z,16.06
2017-10-11T08:42:41.396Z,16.00
2017-10-11T08:43:47.617Z,16.23
2017-10-11T08:44:53.760Z,16.20
2017-10-11T08:46:00.132Z,16.13
2017-10-11T08:47:06.751Z,16.27
2017-10-11T08:48:14.372Z,16.39
2017-10-11T08:49:20.549Z,16.63
2017-10-11T08:50:28.564Z,16.59
2017-10-11T08:51:34.554Z,16.49
2017-10-11T08:52:40.834Z,16.54
2017-10-11T08:53:47.981Z,16.68
2017-10-11T08:54:54.207Z,16.55
2017-10-11T08:56:00.378Z,16.60
2017-10-11T08:57:06.655Z,16.71
2017-10-11T08:58:14.531Z,16.81
2017-10-11T08:59:22.502Z,16.76
2017-10-11T09:00:28.793Z,16.74
2017-10-11T09:01:35.908Z,16.60
2017-10-11T09:02:42.928Z,16.62
2017-10-11T09:03:49.872Z,16.55
2017-10-11T09:04:56.698Z,16.52
2017-10-11T09:06:04.657Z,16.40
2017-10-11T09:07:11.631Z,16.34
2017-10-11T09:08:18.000Z,16.32
2017-10-11T09:09:24.549Z,16.33
2017-10-11T09:10:30.750Z,16.35
2017-10-11T09:11:37.137Z,16.43
2017-10-11T09:12:43.340Z,16.62
2017-10-11T09:13:51.113Z,16.73
2017-10-11T09:14:57.262Z,16.66
2017-10-11T09:16:04.162Z,16.78
2017-10-11T09:17:14.752Z,16.78
2017-10-11T09:18:20.961Z,16.77
2017-10-11T09:19:26.977Z,16.68
2017-10-11T09:20:32.981Z,16.63
2017-10-11T09:21:40.898Z,16.73
2017-10-11T09:22:47.368Z,16.75
2017-10-11T09:23:54.340Z,16.74
2017-10-11T09:25:00.468Z,16.74
2017-10-11T09:26:07.501Z,16.90
2017-10-11T09:27:13.957Z,17.04
2017-10-11T09:28:20.053Z,16.95
2017-10-11T09:29:26.280Z,17.06
2017-10-11T09:30:32.495Z,17.14
2017-10-11T09:31:38.757Z,17.03
2017-10-11T09:32:45.996Z,17.07
2017-10-11T09:33:52.021Z,17.06
2017-10-11T09:34:59.237Z,16.80
2017-10-11T09:36:06.289Z,16.68
2017-10-11T09:37:12.273Z,16.62
2017-10-11T09:38:19.412Z,16.76
2017-10-11T09:39:27.247Z,16.75
2017-10-11T09:40:33.857Z,16.79
2017-10-11T09:41:40.612Z,16.84
2017-10-11T09:42:48.358Z,16.73
2017-10-11T09:43:55.502Z,16.65
2017-10-11T09:45:04.818Z,16.61
2017-10-11T09:46:11.953Z,16.61
2017-10-11T09:47:18.545Z,16.68
2017-10-11T09:48:24.755Z,16.60
2017-10-11T09:49:31.008Z,16.64
2017-10-11T09:50:37.739Z,16.62
2017-10-11T09:51:43.828Z,16.72
2017-10-11T09:52:49.981Z,16.75
2017-10-11T09:53:56.851Z,16.59
2017-10-11T09:55:02.856Z,16.57
2017-10-11T09:56:09.039Z,16.50
2017-10-11T09:57:15.950Z,16.54
2017-10-11T09:58:23.014Z,16.56
2017-10-11T09:59:29.108Z,16.57
2017-10-11T10:00:36.132Z,16.47
2017-10-11T10:01:43.368Z,16.64
2017-10-11T10:02:50.134Z,16.66
2017-10-11T10:03:56.249Z,16.70
2017-10-11T10:05:02.467Z,16.82
2017-10-11T10:06:09.141Z,16.70
2017-10-11T10:07:15.434Z,16.85
2017-10-11T10:08:22.379Z,16.78
2017-10-11T10:09:28.820Z,16.77
2017-10-11T10:10:34.915Z,16.77
2017-10-11T10:11:41.126Z,16.83
2017-10-11T10:12:47.329Z,16.77
2017-10-11T10:13:53.532Z,16.72
2017-10-11T10:15:01.390Z,16.74
2017-10-11T10:16:07.342Z,16.73
2017-10-11T10:17:13.627Z,16.74
2017-10-11T10:18:19.812Z,16.72
2017-10-11T10:19:26.671Z,16.85
2017-10-11T10:20:32.900Z,16.89
2017-10-11T10:21:39.006Z,16.90
2017-10-11T10:22:45.525Z,16.98
2017-10-11T10:23:52.147Z,17.18
2017-10-11T10:24:59.159Z,17.38
2017-10-11T10:26:05.811Z,17.37
2017-10-11T10:27:11.945Z,17.19
2017-10-11T10:28:18.777Z,17.13
2017-10-11T10:29:25.298Z,17.02
2017-10-11T10:30:31.955Z,17.03
2017-10-11T10:31:38.817Z,17.07
2017-10-11T10:32:44.886Z,17.05
2017-10-11T10:33:51.125Z,16.91
2017-10-11T10:34:58.005Z,16.84
2017-10-11T10:36:04.159Z,16.89
2017-10-11T10:37:10.786Z,16.81
2017-10-11T10:38:16.969Z,16.72
2017-10-11T10:39:24.944Z,16.92
2017-10-11T10:40:31.223Z,16.92
2017-10-11T10:41:42.501Z,16.92
2017-10-11T10:42:48.402Z,16.93
2017-10-11T10:43:54.915Z,16.97
2017-10-11T10:45:01.766Z,16.98
2017-10-11T10:46:11.253Z,16.91
2017-10-11T10:47:17.482Z,16.80
2017-10-11T10:48:23.761Z,16.83
2017-10-11T10:49:30.203Z,16.93
2017-10-11T10:50:36.450Z,16.95
2017-10-11T10:51:56.682Z,17.15
2017-10-11T10:53:03.430Z,17.19
2017-10-11T10:54:09.246Z,17.38
2017-10-11T10:55:16.663Z,17.42
2017-10-11T10:56:22.950Z,17.55
2017-10-11T10:57:29.580Z,17.52
2017-10-11T10:58:39.084Z,17.65
2017-10-11T10:59:45.470Z,17.55
2017-10-11T11:00:51.924Z,17.63
2017-10-11T11:01:58.171Z,17.63
2017-10-11T11:03:04.436Z,17.67
2017-10-11T11:04:10.746Z,17.73
2017-10-11T11:05:17.942Z,17.41
2017-10-11T11:06:25.549Z,17.47
2017-10-11T11:07:34.534Z,17.45
2017-10-11T11:08:40.885Z,17.58
2017-10-11T11:09:47.220Z,17.46
2017-10-11T11:10:53.390Z,17.48
2017-10-11T11:11:59.617Z,17.65
2017-10-11T11:13:06.211Z,17.67
2017-10-11T11:14:12.738Z,17.52
2017-10-11T11:15:18.965Z,17.51
2017-10-11T11:16:25.202Z,17.81
2017-10-11T11:17:33.206Z,17.76
2017-10-11T11:18:39.493Z,17.60
2017-10-11T11:19:46.481Z,17.43
2017-10-11T11:20:52.674Z,17.54
2017-10-11T11:21:58.828Z,17.68
2017-10-11T11:23:05.532Z,17.53
2017-10-11T11:24:11.765Z,17.41
2017-10-11T11:25:18.078Z,17.35
2017-10-11T11:26:24.159Z,17.44
2017-10-11T11:27:30.754Z,17.34
2017-10-11T11:28:37.148Z,17.18
2017-10-11T11:29:43.865Z,16.99
2017-10-11T11:30:50.148Z,17.06
2017-10-11T11:31:57.321Z,16.99
2017-10-11T11:33:05.156Z,17.03
2017-10-11T11:34:11.065Z,17.09
2017-10-11T11:35:17.349Z,17.15
2017-10-11T11:36:24.105Z,17.24
2017-10-11T11:37:33.183Z,17.28
2017-10-11T11:38:39.329Z,17.29
2017-10-11T11:39:46.824Z,17.22
2017-10-11T11:40:53.182Z,17.29
2017-10-11T11:41:59.802Z,17.51
2017-10-11T11:43:06.707Z,17.53
2017-10-11T11:44:14.563Z,17.41
2017-10-11T11:45:20.563Z,17.49
2017-10-11T11:46:26.800Z,17.53
2017-10-11T11:47:33.861Z,17.57
2017-10-11T11:48:41.753Z,17.47
2017-10-11T11:49:47.949Z,17.46
2017-10-11T11:50:54.176Z,17.40
2017-10-11T11:52:00.384Z,17.23
2017-10-11T11:53:07.499Z,17.14
2017-10-11T11:54:15.424Z,17.17
2017-10-11T11:55:22.651Z,17.05
2017-10-11T11:56:30.598Z,17.02
2017-10-11T11:57:36.764Z,17.09
2017-10-11T11:58:43.017Z,16.97
2017-10-11T11:59:49.239Z,17.03
2017-10-11T12:00:55.415Z,16.94
2017-10-11T12:02:01.579Z,16.94
2017-10-11T12:03:07.828Z,16.97
2017-10-11T12:04:14.199Z,16.83
2017-10-11T12:05:24.452Z,16.75
2017-10-11T12:06:30.803Z,16.76
2017-10-11T12:07:37.766Z,16.72
2017-10-11T12:08:43.827Z,16.74
2017-10-11T12:09:50.468Z,16.73
2017-10-11T12:10:56.618Z,16.65
2017-10-11T12:12:02.806Z,16.60
2017-10-11T12:13:09.786Z,16.68
2017-10-11T12:14:19.453Z,16.67
2017-10-11T12:15:28.122Z,16.65
2017-10-11T12:16:34.428Z,16.79
2017-10-11T12:17:41.079Z,16.81
2017-10-11T12:18:49.715Z,16.84
2017-10-11T12:19:56.970Z,16.99
2017-10-11T12:21:03.550Z,17.13
2017-10-11T12:22:10.067Z,17.10
2017-10-11T12:23:16.337Z,17.08
2017-10-11T12:24:23.134Z,17.17
2017-10-11T12:25:31.800Z,17.13
2017-10-11T12:26:38.619Z,17.07
2017-10-11T12:27:44.931Z,17.17
2017-10-11T12:28:51.121Z,17.14
2017-10-11T12:29:57.300Z,17.18
2017-10-11T12:31:03.304Z,17.17
2017-10-11T12:32:12.328Z,17.20
2017-10-11T12:33:20.763Z,17.11
2017-10-11T12:34:27.965Z,16.93
2017-10-11T12:35:34.399Z,16.92
2017-10-11T12:36:40.740Z,16.89
2017-10-11T12:37:46.954Z,16.80
2017-10-11T12:38:53.138Z,16.79
2017-10-11T12:39:59.731Z,16.78
2017-10-11T12:41:06.026Z,16.74
2017-10-11T12:42:13.168Z,16.67
2017-10-11T12:43:19.602Z,16.74
2017-10-11T12:44:25.841Z,16.70
2017-10-11T12:45:32.120Z,16.72
2017-10-11T12:46:39.154Z,16.73
2017-10-11T12:47:45.290Z,16.78
2017-10-11T12:48:51.461Z,16.77
2017-10-11T12:49:58.489Z,16.66
2017-10-11T12:51:05.336Z,16.66
2017-10-11T12:52:11.547Z,16.68
2017-10-11T12:53:21.734Z,16.66
2017-10-11T12:54:27.905Z,16.74
2017-10-11T12:55:34.063Z,16.89
2017-10-11T12:56:40.273Z,17.03
2017-10-11T12:57:46.558Z,17.22
2017-10-11T12:58:52.468Z,17.12
2017-10-11T13:00:00.330Z,17.07
2017-10-11T13:01:07.039Z,17.06
2017-10-11T13:02:13.821Z,17.03
2017-10-11T13:03:20.115Z,17.05
2017-10-11T13:04:26.461Z,17.10
2017-10-11T13:05:35.460Z,17.11
2017-10-11T13:06:41.663Z,16.95
2017-10-11T13:07:47.922Z,17.00
2017-10-11T13:08:54.901Z,17.25
2017-10-11T13:10:02.054Z,17.58
2017-10-11T13:11:08.228Z,17.62
2017-10-11T13:12:15.933Z,17.48
2017-10-11T13:13:22.139Z,17.36
2017-10-11T13:14:29.354Z,17.13
2017-10-11T13:15:37.347Z,17.06
2017-10-11T13:16:43.709Z,17.14
2017-10-11T13:17:49.821Z,17.24
2017-10-11T13:18:56.265Z,17.17
2017-10-11T13:20:02.652Z,16.98
2017-10-11T13:21:08.803Z,16.90
2017-10-11T13:22:15.694Z,16.95
2017-10-11T13:23:22.769Z,16.93
2017-10-11T13:24:31.408Z,16.96
2017-10-11T13:25:38.233Z,16.94
2017-10-11T13:26:45.007Z,17.05
2017-10-11T13:27:51.297Z,17.29
2017-10-11T13:28:58.021Z,17.21
2017-10-11T13:30:06.991Z,17.23
2017-10-11T13:31:13.953Z,17.16
2017-10-11T13:32:20.905Z,17.08
2017-10-11T13:33:26.766Z,17.14
2017-10-11T13:34:33.694Z,17.02
2017-10-11T13:35:40.817Z,16.89
2017-10-11T13:36:47.561Z,16.83
2017-10-11T13:37:54.919Z,16.81
2017-10-11T13:39:01.244Z,16.85
2017-10-11T13:40:07.272Z,17.04
2017-10-11T13:41:13.555Z,17.04
2017-10-11T13:42:19.863Z,17.09
2017-10-11T13:43:26.826Z,17.13
2017-10-11T13:44:32.943Z,17.19
2017-10-11T13:45:44.276Z,17.12
2017-10-11T13:46:51.141Z,17.21
2017-10-11T13:47:57.855Z,17.25
2017-10-11T13:49:04.901Z,17.30
2017-10-11T13:50:12.106Z,17.27
2017-10-11T13:51:18.209Z,16.98
2017-10-11T13:52:24.946Z,17.07
2017-10-11T13:53:32.157Z,17.07
2017-10-11T13:54:38.362Z,16.95
2017-10-11T13:55:44.290Z,16.96
2017-10-11T13:56:52.176Z,17.02
2017-10-11T13:57:58.041Z,17.02
2017-10-11T13:59:03.935Z,16.99
2017-10-11T14:00:10.038Z,16.93
2017-10-11T14:01:18.443Z,16.90
2017-10-11T14:02:25.299Z,16.83
2017-10-11T14:03:31.294Z,16.81
2017-10-11T14:04:37.254Z,16.78
2017-10-11T14:05:43.329Z,16.79
2017-10-11T14:06:49.389Z,16.80
2017-10-11T14:07:55.407Z,16.77
2017-10-11T14:09:04.154Z,16.77
2017-10-11T14:10:11.699Z,16.83
2017-10-11T14:11:19.118Z,16.81
2017-10-11T14:12:25.171Z,16.79
2017-10-11T14:13:31.191Z,16.86
2017-10-11T14:14:37.767Z,16.87
2017-10-11T14:15:44.180Z,16.91
2017-10-11T14:16:50.188Z,16.90